Time;durP1;ratioP1;P1;durP2;ratioP2;P2;SDS_P1;SDS_P2;PMS_P1;PMS_P2;Temp;Humidity;BMP_temperature;BMP_pressure;BME280_temperature;BME280_humidity;BME280_pressure;Samples;Min_cycle;Max_cycle;Signal;HPM_P1;HPM_P2
2023/09/09 00:01:34;;;;;;;12.88;8.73;;;;;;;;;;5007450;28;98918;-78
2023/09/09 00:04:03;;;;;;;13.27;9.32;;;;;;;;;;5010455;28;99026;-78
2023/09/09 00:06:29;;;;;;;12.60;9.25;;;;;;;;;;4989073;28;100451;-78
2023/09/09 00:08:56;;;;;;;11.80;8.98;;;;;;;;;;5006813;28;99373;-77
2023/09/09 00:11:23;;;;;;;12.00;8.35;;;;;;;;;;5007570;28;97951;-77
2023/09/09 00:13:51;;;;;;;13.50;9.30;;;;;;;;;;4994965;28;98887;-78
2023/09/09 00:16:18;;;;;;;12.77;8.38;;;;;;;;;;5007898;28;99142;-77
2023/09/09 00:18:45;;;;;;;12.43;9.20;;;;;;;;;;4990537;28;99268;-77
2023/09/09 00:21:14;;;;;;;13.43;8.43;;;;;;;;;;4990713;28;102631;-78
2023/09/09 00:23:40;;;;;;;11.55;8.00;;;;;;;;;;4995836;28;102226;-78
2023/09/09 00:26:07;;;;;;;11.38;8.38;;;;;;;;;;5020406;28;98976;-78
2023/09/09 00:28:34;;;;;;;11.82;8.25;;;;;;;;;;5003229;28;102265;-78
2023/09/09 00:31:01;;;;;;;11.13;8.40;;;;;;;;;;5000893;28;98614;-77
2023/09/09 00:33:27;;;;;;;13.40;8.27;;;;;;;;;;5000110;28;100570;-77
2023/09/09 00:35:58;;;;;;;11.65;7.70;;;;;;;;;;4999124;28;98367;-77
2023/09/09 00:38:24;;;;;;;13.40;8.93;;;;;;;;;;4999113;28;98546;-77
2023/09/09 00:41:11;;;;;;;10.50;7.53;;;;;;;;;;5000397;28;100565;-76
2023/09/09 00:43:38;;;;;;;11.95;8.52;;;;;;;;;;5011830;28;99897;-77
2023/09/09 00:46:09;;;;;;;13.27;8.95;;;;;;;;;;5010788;28;99394;-77
2023/09/09 00:48:39;;;;;;;12.20;9.73;;;;;;;;;;5013226;28;99435;-77
2023/09/09 00:51:05;;;;;;;13.07;9.88;;;;;;;;;;4974851;28;98797;-78
2023/09/09 00:53:34;;;;;;;14.15;9.20;;;;;;;;;;4989216;28;102040;-78
2023/09/09 00:56:01;;;;;;;14.57;10.07;;;;;;;;;;4988482;28;101910;-77
2023/09/09 00:58:31;;;;;;;13.23;10.00;;;;;;;;;;5008843;28;98782;-78
2023/09/09 01:00:58;;;;;;;13.10;9.75;;;;;;;;;;4975200;28;102099;-78
2023/09/09 01:03:24;;;;;;;13.95;9.00;;;;;;;;;;4995778;28;100214;-77
2023/09/09 01:05:51;;;;;;;12.55;8.75;;;;;;;;;;5007084;28;98573;-77
2023/09/09 01:08:28;;;;;;;12.88;8.10;;;;;;;;;;5006355;28;99558;-77
2023/09/09 01:10:55;;;;;;;13.05;9.30;;;;;;;;;;5007289;28;99880;-78
2023/09/09 01:13:22;;;;;;;12.20;8.65;;;;;;;;;;5006757;28;99389;-77
2023/09/09 01:15:49;;;;;;;11.18;8.10;;;;;;;;;;5005680;28;99046;-78
2023/09/09 01:18:17;;;;;;;12.60;8.45;;;;;;;;;;5006840;28;98506;-78
2023/09/09 01:20:49;;;;;;;11.50;8.77;;;;;;;;;;4988380;28;98895;-78
2023/09/09 01:23:15;;;;;;;13.40;8.73;;;;;;;;;;5005745;28;99057;-78
2023/09/09 01:25:42;;;;;;;12.48;8.52;;;;;;;;;;5005699;28;98203;-78
2023/09/09 01:28:09;;;;;;;12.68;8.55;;;;;;;;;;5005775;28;99120;-77
2023/09/09 01:30:35;;;;;;;13.70;9.73;;;;;;;;;;5009188;28;98644;-78
2023/09/09 01:33:02;;;;;;;14.05;9.25;;;;;;;;;;5005452;28;99222;-78
2023/09/09 01:35:28;;;;;;;14.32;9.35;;;;;;;;;;5005190;28;100722;-78
2023/09/09 01:37:55;;;;;;;12.65;8.95;;;;;;;;;;5005694;28;98855;-77
2023/09/09 01:40:22;;;;;;;13.73;8.80;;;;;;;;;;4987442;28;102807;-78
2023/09/09 01:42:49;;;;;;;13.60;9.65;;;;;;;;;;5005499;28;99342;-78
2023/09/09 01:45:17;;;;;;;13.15;9.43;;;;;;;;;;4987464;28;99290;-77
2023/09/09 01:47:44;;;;;;;13.27;9.23;;;;;;;;;;4987380;28;101520;-78
2023/09/09 01:50:10;;;;;;;13.30;9.48;;;;;;;;;;4987548;28;99485;-78
2023/09/09 01:52:37;;;;;;;13.63;9.23;;;;;;;;;;5008723;28;99065;-78
2023/09/09 01:55:04;;;;;;;13.70;9.63;;;;;;;;;;4987314;28;101830;-78
2023/09/09 01:57:30;;;;;;;13.13;8.82;;;;;;;;;;4986154;28;99238;-78
2023/09/09 01:59:58;;;;;;;15.43;11.20;;;;;;;;;;4988045;28;101607;-78
2023/09/09 02:02:24;;;;;;;14.82;10.55;;;;;;;;;;4970935;28;101618;-78
2023/09/09 02:04:51;;;;;;;13.13;9.18;;;;;;;;;;5007243;28;98930;-78
2023/09/09 02:07:17;;;;;;;17.38;10.88;;;;;;;;;;4989576;28;101730;-77
2023/09/09 02:09:45;;;;;;;16.83;10.60;;;;;;;;;;4988430;28;99582;-76
2023/09/09 02:12:12;;;;;;;15.57;11.10;;;;;;;;;;5006954;28;98545;-79
2023/09/09 02:14:39;;;;;;;17.00;10.55;;;;;;;;;;5012885;28;97796;-79
2023/09/09 02:17:05;;;;;;;15.80;11.02;;;;;;;;;;5019605;28;98850;-78
2023/09/09 02:19:32;;;;;;;17.48;11.95;;;;;;;;;;5019880;28;98445;-79
2023/09/09 02:21:58;;;;;;;17.58;11.13;;;;;;;;;;4993858;28;101574;-79
2023/09/09 02:24:25;;;;;;;17.00;11.30;;;;;;;;;;5013805;28;98522;-79
2023/09/09 02:26:51;;;;;;;14.95;10.07;;;;;;;;;;5012065;28;98795;-79
2023/09/09 02:29:18;;;;;;;12.93;9.00;;;;;;;;;;4990889;28;101937;-79
2023/09/09 02:31:44;;;;;;;17.77;11.93;;;;;;;;;;5007141;28;99024;-79
2023/09/09 02:34:11;;;;;;;26.17;18.40;;;;;;;;;;5006155;28;98729;-79
2023/09/09 02:36:43;;;;;;;21.65;13.73;;;;;;;;;;5008738;28;99155;-79
2023/09/09 02:39:10;;;;;;;25.52;17.75;;;;;;;;;;4970907;28;99235;-78
2023/09/09 02:41:37;;;;;;;24.45;16.95;;;;;;;;;;5004015;28;99128;-76
2023/09/09 02:44:04;;;;;;;23.25;15.02;;;;;;;;;;5004732;28;98897;-79
2023/09/09 02:46:30;;;;;;;22.48;14.82;;;;;;;;;;4982122;28;101878;-79
2023/09/09 02:48:57;;;;;;;24.92;16.15;;;;;;;;;;4985285;28;100438;-78
2023/09/09 02:51:24;;;;;;;24.73;17.33;;;;;;;;;;4985653;28;99311;-79
2023/09/09 02:53:50;;;;;;;25.25;16.48;;;;;;;;;;4985913;28;101756;-78
2023/09/09 02:56:17;;;;;;;23.58;17.35;;;;;;;;;;5003527;28;100473;-78
2023/09/09 02:58:44;;;;;;;22.00;15.60;;;;;;;;;;4989443;28;99949;-77
2023/09/09 03:01:11;;;;;;;22.02;16.17;;;;;;;;;;4985347;28;101226;-77
2023/09/09 03:03:37;;;;;;;25.52;17.60;;;;;;;;;;5004364;28;97810;-77
2023/09/09 03:06:05;;;;;;;22.05;15.15;;;;;;;;;;5004019;28;98475;-77
2023/09/09 03:08:32;;;;;;;20.88;13.05;;;;;;;;;;4970115;28;101701;-77
2023/09/09 03:10:59;;;;;;;21.67;14.07;;;;;;;;;;4988679;28;99535;-77
2023/09/09 03:13:27;;;;;;;21.25;14.35;;;;;;;;;;4989028;28;101229;-77
2023/09/09 03:15:54;;;;;;;19.88;13.07;;;;;;;;;;5006592;28;100043;-77
2023/09/09 03:18:20;;;;;;;19.98;13.68;;;;;;;;;;4989360;28;98568;-77
2023/09/09 03:20:47;;;;;;;21.67;15.15;;;;;;;;;;4991893;28;101763;-76
2023/09/09 03:23:14;;;;;;;23.45;15.90;;;;;;;;;;5007561;28;98957;-76
2023/09/09 03:25:40;;;;;;;18.55;12.30;;;;;;;;;;5008352;28;99059;-77
2023/09/09 03:28:07;;;;;;;18.40;12.45;;;;;;;;;;5007544;28;98617;-77
2023/09/09 03:30:51;;;;;;;17.42;11.95;;;;;;;;;;4994819;28;98640;-77
2023/09/09 03:33:17;;;;;;;16.58;11.65;;;;;;;;;;5009020;28;99430;-77
2023/09/09 03:35:44;;;;;;;15.25;10.15;;;;;;;;;;4987675;28;102395;-78
2023/09/09 03:38:11;;;;;;;15.45;10.30;;;;;;;;;;5006875;28;98897;-77
2023/09/09 03:40:37;;;;;;;15.82;10.70;;;;;;;;;;5009853;28;98949;-77
2023/09/09 03:43:04;;;;;;;15.10;9.90;;;;;;;;;;4988163;28;100757;-77
2023/09/09 03:45:31;;;;;;;16.58;11.27;;;;;;;;;;4988991;28;100712;-77
2023/09/09 03:47:58;;;;;;;15.57;11.20;;;;;;;;;;4987621;28;101440;-77
2023/09/09 03:50:24;;;;;;;16.40;10.80;;;;;;;;;;5006420;28;98702;-77
2023/09/09 03:52:51;;;;;;;17.48;11.98;;;;;;;;;;4988663;28;100295;-77
2023/09/09 03:55:18;;;;;;;17.25;11.05;;;;;;;;;;4987818;28;101760;-77
2023/09/09 03:57:45;;;;;;;;;;;;;;;;;;4988884;28;98950;-77
2023/09/09 04:00:12;;;;;;;18.05;11.43;;;;;;;;;;4989502;28;118244;-77
2023/09/09 04:02:39;;;;;;;16.58;10.82;;;;;;;;;;5009493;28;99114;-77
2023/09/09 04:05:07;;;;;;;17.23;11.73;;;;;;;;;;4971498;28;100813;-77
2023/09/09 04:07:35;;;;;;;22.23;14.73;;;;;;;;;;4987304;28;101712;-77
2023/09/09 04:10:03;;;;;;;18.48;11.82;;;;;;;;;;4987782;28;99265;-77
2023/09/09 04:12:30;;;;;;;;;;;;;;;;;;5006893;28;98741;-77
2023/09/09 04:14:56;;;;;;;15.50;9.82;;;;;;;;;;4989999;28;101845;-77
2023/09/09 04:17:23;;;;;;;17.55;12.15;;;;;;;;;;4988993;28;97943;-76
2023/09/09 04:19:50;;;;;;;17.55;11.38;;;;;;;;;;4970619;28;100782;-76
2023/09/09 04:22:17;;;;;;;15.88;10.13;;;;;;;;;;4987141;28;101657;-76
2023/09/09 04:24:43;;;;;;;17.60;11.30;;;;;;;;;;4990501;28;99328;-77
2023/09/09 04:27:10;;;;;;;17.30;10.80;;;;;;;;;;4986688;28;100381;-76
2023/09/09 04:29:37;;;;;;;17.35;11.15;;;;;;;;;;5005841;28;98570;-77
2023/09/09 04:32:04;;;;;;;16.30;10.18;;;;;;;;;;4971090;28;101766;-77
2023/09/09 04:34:31;;;;;;;17.83;10.75;;;;;;;;;;5005456;28;98894;-77
2023/09/09 04:36:58;;;;;;;24.58;16.60;;;;;;;;;;5005626;28;99114;-77
2023/09/09 04:39:24;;;;;;;25.88;17.67;;;;;;;;;;5006160;28;100283;-77
2023/09/09 04:41:51;;;;;;;23.70;14.75;;;;;;;;;;4987559;28;99701;-77
2023/09/09 04:44:18;;;;;;;31.88;21.52;;;;;;;;;;4987748;28;99240;-76
2023/09/09 04:46:44;;;;;;;24.67;15.73;;;;;;;;;;5007158;28;98991;-77
2023/09/09 04:49:11;;;;;;;28.45;18.30;;;;;;;;;;4974544;28;99302;-77
2023/09/09 04:51:38;;;;;;;25.77;16.90;;;;;;;;;;5005454;28;99595;-77
2023/09/09 04:54:05;;;;;;;29.88;18.95;;;;;;;;;;4986874;28;101334;-78
2023/09/09 04:56:32;;;;;;;27.98;18.33;;;;;;;;;;5005426;28;98486;-77
2023/09/09 04:58:58;;;;;;;32.55;21.80;;;;;;;;;;5005804;28;99020;-77
2023/09/09 05:01:25;;;;;;;27.52;17.90;;;;;;;;;;5005093;28;99013;-77
2023/09/09 05:03:51;;;;;;;34.67;22.75;;;;;;;;;;5005770;28;98532;-77
2023/09/09 05:06:18;;;;;;;32.10;21.40;;;;;;;;;;4987477;28;101436;-77
2023/09/09 05:08:45;;;;;;;27.35;17.65;;;;;;;;;;4990358;28;100360;-77
2023/09/09 05:11:12;;;;;;;31.08;19.45;;;;;;;;;;5005426;28;98950;-77
2023/09/09 05:13:38;;;;;;;33.80;22.98;;;;;;;;;;4986220;28;102528;-77
2023/09/09 05:16:05;;;;;;;28.42;18.55;;;;;;;;;;4969997;28;98647;-77
2023/09/09 05:18:33;;;;;;;;;;;;;;;;;;4987420;28;102212;-77
2023/09/09 05:20:59;;;;;;;40.92;24.30;;;;;;;;;;5006425;28;107891;-76
2023/09/09 05:23:26;;;;;;;31.75;19.67;;;;;;;;;;5005161;28;98512;-79
2023/09/09 05:25:52;;;;;;;29.85;20.40;;;;;;;;;;4985981;28;101247;-79
2023/09/09 05:28:19;;;;;;;39.08;26.20;;;;;;;;;;5004764;28;99203;-79
2023/09/09 05:30:45;;;;;;;30.77;20.35;;;;;;;;;;4990207;28;98206;-78
2023/09/09 05:33:12;;;;;;;34.75;23.58;;;;;;;;;;4985455;28;101936;-78
2023/09/09 05:35:39;;;;;;;32.45;22.33;;;;;;;;;;5005010;28;98527;-78
2023/09/09 05:38:05;;;;;;;30.17;20.63;;;;;;;;;;5003929;28;99928;-78
2023/09/09 05:40:32;;;;;;;33.05;22.35;;;;;;;;;;5004737;28;99061;-78
2023/09/09 05:42:59;;;;;;;35.30;23.15;;;;;;;;;;5004741;28;98484;-78
2023/09/09 05:45:25;;;;;;;36.35;25.02;;;;;;;;;;5004571;28;98892;-79
2023/09/09 05:47:52;;;;;;;44.25;28.35;;;;;;;;;;4985757;28;100179;-78
2023/09/09 05:50:19;;;;;;;36.00;22.75;;;;;;;;;;5007992;28;98784;-78
2023/09/09 05:52:45;;;;;;;40.28;26.27;;;;;;;;;;4969495;28;102261;-79
2023/09/09 05:55:12;;;;;;;36.70;23.02;;;;;;;;;;5004960;28;98115;-78
2023/09/09 05:57:39;;;;;;;44.13;27.50;;;;;;;;;;4997144;28;100916;-77
2023/09/09 06:00:06;;;;;;;;;;;;;;;;;;4989376;28;100145;-76
2023/09/09 06:02:41;;;;;;;48.97;31.10;;;;;;;;;;5006069;28;99364;-78
2023/09/09 06:05:10;;;;;;;44.15;27.60;;;;;;;;;;4962371;28;102543;-76
2023/09/09 06:07:36;;;;;;;57.38;34.28;;;;;;;;;;4966044;28;101850;-77
2023/09/09 06:10:07;;;;;;;63.90;36.97;;;;;;;;;;4985871;28;98683;-77
2023/09/09 06:12:34;;;;;;;62.38;36.20;;;;;;;;;;4989297;28;101400;-77
2023/09/09 06:15:01;;;;;;;53.72;32.60;;;;;;;;;;5004715;28;98679;-78
2023/09/09 06:17:29;;;;;;;56.60;34.42;;;;;;;;;;4988400;28;101829;-82
2023/09/09 06:19:56;;;;;;;58.40;34.92;;;;;;;;;;4987076;28;101266;-80
2023/09/09 06:22:22;;;;;;;56.22;33.67;;;;;;;;;;4996573;28;98507;-82
2023/09/09 06:24:49;;;;;;;63.50;37.05;;;;;;;;;;4971036;28;101832;-81
2023/09/09 06:27:18;;;;;;;60.58;35.30;;;;;;;;;;4983505;28;102249;-82
2023/09/09 06:29:44;;;;;;;53.22;31.83;;;;;;;;;;4970595;28;98602;-81
2023/09/09 06:32:11;;;;;;;52.50;31.80;;;;;;;;;;4970889;28;100029;-81
2023/09/09 06:34:38;;;;;;;53.47;32.65;;;;;;;;;;4990072;28;100844;-82
2023/09/09 06:37:04;;;;;;;57.42;32.20;;;;;;;;;;4970706;28;101573;-82
2023/09/09 06:39:31;;;;;;;58.15;34.22;;;;;;;;;;5004500;28;100183;-84
2023/09/09 06:41:58;;;;;;;54.78;32.05;;;;;;;;;;5005314;28;99116;-81
2023/09/09 06:44:30;;;;;;;51.13;29.17;;;;;;;;;;4990299;28;101782;-81
2023/09/09 06:46:57;;;;;;;54.88;32.85;;;;;;;;;;5008066;28;100343;-81
2023/09/09 06:49:23;;;;;;;52.38;30.98;;;;;;;;;;5009188;28;99092;-82
2023/09/09 06:51:50;;;;;;;49.65;28.38;;;;;;;;;;5008483;28;100673;-82
2023/09/09 06:54:17;;;;;;;49.58;30.27;;;;;;;;;;5007974;28;100487;-83
2023/09/09 06:56:43;;;;;;;54.95;32.10;;;;;;;;;;4994210;28;98815;-85
2023/09/09 06:59:10;;;;;;;51.22;30.98;;;;;;;;;;4993114;28;99348;-84
2023/09/09 07:01:36;;;;;;;48.90;29.92;;;;;;;;;;4989822;28;98663;-83
2023/09/09 07:04:03;;;;;;;47.53;29.52;;;;;;;;;;5009171;28;99482;-82
2023/09/09 07:06:30;;;;;;;45.42;28.27;;;;;;;;;;4990481;28;99298;-82
2023/09/09 07:08:56;;;;;;;49.92;29.30;;;;;;;;;;5009510;28;98368;-82
2023/09/09 07:11:23;;;;;;;44.08;26.38;;;;;;;;;;5007221;28;99493;-82
2023/09/09 07:13:49;;;;;;;38.28;23.15;;;;;;;;;;4988987;28;99524;-82
2023/09/09 07:16:16;;;;;;;46.78;28.42;;;;;;;;;;4988219;28;99743;-82
2023/09/09 07:18:43;;;;;;;;;;;;;;;;;;5010572;28;98501;-82
2023/09/09 07:21:10;;;;;;;35.22;21.98;;;;;;;;;;5008324;28;110132;-83
2023/09/09 07:23:36;;;;;;;36.50;21.88;;;;;;;;;;5006823;28;99322;-82
2023/09/09 07:26:03;;;;;;;44.42;27.42;;;;;;;;;;5005611;28;99252;-82
2023/09/09 07:28:31;;;;;;;32.38;19.67;;;;;;;;;;5007825;28;99128;-82
2023/09/09 07:31:04;;;;;;;38.25;23.77;;;;;;;;;;5007162;28;100170;-82
2023/09/09 07:33:31;;;;;;;37.53;22.85;;;;;;;;;;5007631;28;98276;-82
2023/09/09 07:35:57;;;;;;;39.97;24.27;;;;;;;;;;5007359;28;99072;-82
2023/09/09 07:38:24;;;;;;;39.85;24.98;;;;;;;;;;4991925;28;100175;-83
2023/09/09 07:40:57;;;;;;;42.22;25.83;;;;;;;;;;5007092;28;99268;-82
2023/09/09 07:43:24;;;;;;;40.50;24.27;;;;;;;;;;5007620;28;100840;-82
2023/09/09 07:45:51;;;;;;;37.78;23.77;;;;;;;;;;5009561;28;99129;-81
2023/09/09 07:48:18;;;;;;;44.30;27.63;;;;;;;;;;4986554;28;98950;-80
2023/09/09 07:50:45;;;;;;;;;;;;;;;;;;5001081;28;99595;-79
2023/09/09 07:53:11;;;;;;;28.88;17.02;;;;;;;;;;4996454;28;119422;-79
2023/09/09 07:55:38;;;;;;;27.38;15.90;;;;;;;;;;4984174;28;98819;-79
2023/09/09 07:58:04;;;;;;;21.45;12.32;;;;;;;;;;4998236;28;98927;-80
2023/09/09 08:00:31;;;;;;;19.73;11.57;;;;;;;;;;5008795;28;99263;-80
2023/09/09 08:02:59;;;;;;;20.77;10.40;;;;;;;;;;4992683;28;99321;-81
2023/09/09 08:05:25;;;;;;;15.57;9.45;;;;;;;;;;4968344;28;101639;-81
2023/09/09 08:07:52;;;;;;;15.82;9.45;;;;;;;;;;5005357;28;98987;-80
2023/09/09 08:10:20;;;;;;;15.55;9.02;;;;;;;;;;4991736;28;98855;-79
2023/09/09 08:12:47;;;;;;;13.68;8.48;;;;;;;;;;5002538;28;99919;-79
2023/09/09 08:15:13;;;;;;;13.98;8.80;;;;;;;;;;5002584;28;98740;-79
2023/09/09 08:17:49;;;;;;;12.75;7.70;;;;;;;;;;5005553;28;99859;-80
2023/09/09 08:20:15;;;;;;;13.25;7.88;;;;;;;;;;4987488;28;99371;-80
2023/09/09 08:22:42;;;;;;;13.55;8.10;;;;;;;;;;5009327;28;98282;-80
2023/09/09 08:25:08;;;;;;;14.23;8.52;;;;;;;;;;4992772;28;101590;-78
2023/09/09 08:27:35;;;;;;;13.48;8.32;;;;;;;;;;5006884;28;98867;-79
2023/09/09 08:30:02;;;;;;;14.13;9.20;;;;;;;;;;4994689;28;99779;-79
2023/09/09 08:32:28;;;;;;;13.45;8.77;;;;;;;;;;5006511;28;99178;-79
2023/09/09 08:34:55;;;;;;;12.27;7.75;;;;;;;;;;5006788;28;98506;-79
2023/09/09 08:37:22;;;;;;;13.20;8.85;;;;;;;;;;5007151;28;99729;-79
2023/09/09 08:39:52;;;;;;;12.25;8.52;;;;;;;;;;5006377;28;99519;-79
2023/09/09 08:42:35;;;;;;;13.85;8.40;;;;;;;;;;4994888;28;99655;-79
2023/09/09 08:45:05;;;;;;;13.15;7.90;;;;;;;;;;4996703;28;99567;-79
2023/09/09 08:47:35;;;;;;;12.40;7.90;;;;;;;;;;5005618;28;97792;-79
2023/09/09 08:50:03;;;;;;;11.90;7.68;;;;;;;;;;4994775;28;98647;-79
2023/09/09 08:52:29;;;;;;;11.98;7.30;;;;;;;;;;5005829;28;98938;-79
2023/09/09 08:54:56;;;;;;;12.07;7.78;;;;;;;;;;5005727;28;99293;-79
2023/09/09 08:57:25;;;;;;;12.23;7.80;;;;;;;;;;4988087;28;99474;-78
2023/09/09 08:59:53;;;;;;;12.55;7.65;;;;;;;;;;5005780;28;99403;-79
2023/09/09 09:02:20;;;;;;;11.45;7.72;;;;;;;;;;5007048;28;98606;-78
2023/09/09 09:04:47;;;;;;;12.50;7.25;;;;;;;;;;5006063;28;98921;-80
2023/09/09 09:07:15;;;;;;;12.15;8.05;;;;;;;;;;5008591;28;101299;-81
2023/09/09 09:09:41;;;;;;;13.13;8.65;;;;;;;;;;5005617;28;100891;-80
2023/09/09 09:12:10;;;;;;;13.30;8.90;;;;;;;;;;5006046;28;98573;-80
2023/09/09 09:14:44;;;;;;;12.57;7.80;;;;;;;;;;4987875;28;98570;-80
2023/09/09 09:17:11;;;;;;;13.95;7.80;;;;;;;;;;5005803;28;100163;-80
2023/09/09 09:19:38;;;;;;;;;;;;;;;;;;4987561;28;99786;-80
2023/09/09 09:22:04;;;;;;;11.85;7.97;;;;;;;;;;5006730;28;106927;-80
2023/09/09 09:24:40;;;;;;;12.68;8.18;;;;;;;;;;5005553;28;99014;-80
2023/09/09 09:27:10;;;;;;;11.70;8.10;;;;;;;;;;5005524;28;98660;-80
2023/09/09 09:29:40;;;;;;;11.00;7.57;;;;;;;;;;5009259;28;98658;-79
2023/09/09 09:32:09;;;;;;;11.32;7.93;;;;;;;;;;5005443;28;99334;-79
2023/09/09 09:34:36;;;;;;;12.57;7.25;;;;;;;;;;4987787;28;98716;-79
2023/09/09 09:37:09;;;;;;;11.68;7.45;;;;;;;;;;4986368;28;98568;-79
2023/09/09 09:39:36;;;;;;;10.52;6.88;;;;;;;;;;4994268;28;99221;-79
2023/09/09 09:42:02;;;;;;;;;;;;;;;;;;4992442;28;98888;-79
2023/09/09 09:44:29;;;;;;;10.95;6.50;;;;;;;;;;4984570;28;100370;-79
2023/09/09 09:46:56;;;;;;;;;;;;;;;;;;4997578;28;99035;-79
2023/09/09 09:49:31;;;;;;;10.18;6.90;;;;;;;;;;4992410;28;98998;-78
2023/09/09 09:51:57;;;;;;;11.55;6.82;;;;;;;;;;4992705;28;99125;-78
2023/09/09 09:54:24;;;;;;;10.52;7.45;;;;;;;;;;5001780;28;99027;-79
2023/09/09 09:56:52;;;;;;;11.77;7.18;;;;;;;;;;5004305;28;98767;-79
2023/09/09 09:59:19;;;;;;;10.60;7.15;;;;;;;;;;5005440;28;100228;-81
2023/09/09 10:01:47;;;;;;;11.65;7.43;;;;;;;;;;5006109;28;97764;-79
2023/09/09 10:04:17;;;;;;;11.30;7.32;;;;;;;;;;5009951;28;99390;-80
2023/09/09 10:06:45;;;;;;;12.25;6.70;;;;;;;;;;5010539;28;99326;-78
2023/09/09 10:09:11;;;;;;;11.20;6.70;;;;;;;;;;5009808;28;99297;-77
2023/09/09 10:11:44;;;;;;;9.95;6.80;;;;;;;;;;5007387;28;99649;-77
2023/09/09 10:14:13;;;;;;;10.07;6.68;;;;;;;;;;4986294;28;98501;-78
2023/09/09 10:16:41;;;;;;;10.90;7.20;;;;;;;;;;4976676;28;99044;-77
2023/09/09 10:19:10;;;;;;;10.65;6.72;;;;;;;;;;5003350;28;101399;-79
2023/09/09 10:21:37;;;;;;;11.98;7.47;;;;;;;;;;4984225;28;98897;-78
2023/09/09 10:24:09;;;;;;;11.48;6.68;;;;;;;;;;4981563;28;99896;-78
2023/09/09 10:26:36;;;;;;;9.85;6.35;;;;;;;;;;4992423;28;99622;-78
2023/09/09 10:29:03;;;;;;;13.30;6.45;;;;;;;;;;5007796;28;98610;-79
2023/09/09 10:31:30;;;;;;;;;;;;;;;;;;4991060;28;99384;-77
2023/09/09 10:33:56;;;;;;;9.70;6.22;;;;;;;;;;5012324;28;99731;-78
2023/09/09 10:36:24;;;;;;;9.10;5.72;;;;;;;;;;5008537;28;99747;-77
2023/09/09 10:38:54;;;;;;;9.73;6.40;;;;;;;;;;5007732;28;98501;-78
2023/09/09 10:41:21;;;;;;;9.13;5.85;;;;;;;;;;4990829;28;98899;-80
2023/09/09 10:43:47;;;;;;;10.75;6.10;;;;;;;;;;4986796;28;98984;-77
2023/09/09 10:46:14;;;;;;;10.18;6.05;;;;;;;;;;4991450;28;99894;-79
2023/09/09 10:48:44;;;;;;;8.82;5.90;;;;;;;;;;5005157;28;98873;-80
2023/09/09 10:51:13;;;;;;;10.95;6.30;;;;;;;;;;5013809;28;98923;-81
2023/09/09 10:53:39;;;;;;;9.50;5.97;;;;;;;;;;4978654;28;102305;-78
2023/09/09 10:56:12;;;;;;;10.05;5.78;;;;;;;;;;5004866;28;98594;-79
2023/09/09 10:58:39;;;;;;;11.48;6.05;;;;;;;;;;5004624;28;99852;-80
2023/09/09 11:01:06;;;;;;;;;;;;;;;;;;5006252;28;99694;-77
2023/09/09 11:03:39;;;;;;;8.60;5.75;;;;;;;;;;4989178;28;100027;-78
2023/09/09 11:06:07;;;;;;;9.07;5.30;;;;;;;;;;5004562;28;99864;-79
2023/09/09 11:08:37;;;;;;;8.50;5.60;;;;;;;;;;4986425;28;98647;-78
2023/09/09 11:11:15;;;;;;;9.18;5.30;;;;;;;;;;5005309;28;99232;-80
2023/09/09 11:13:42;;;;;;;8.32;5.50;;;;;;;;;;5004494;28;99202;-79
2023/09/09 11:16:25;;;;;;;8.00;5.30;;;;;;;;;;5004965;28;97761;-79
2023/09/09 11:18:55;;;;;;;9.00;5.40;;;;;;;;;;5007541;28;98518;-79
2023/09/09 11:21:23;;;;;;;9.35;5.25;;;;;;;;;;4986119;28;98839;-78
2023/09/09 11:23:50;;;;;;;10.30;5.32;;;;;;;;;;4985150;28;99381;-78
2023/09/09 11:26:17;;;;;;;8.77;5.03;;;;;;;;;;4989432;28;99736;-79
2023/09/09 11:28:44;;;;;;;;;;;;;;;;;;5004811;28;98827;-78
2023/09/09 11:31:11;;;;;;;8.38;5.00;;;;;;;;;;5008785;28;116166;-80
2023/09/09 11:33:38;;;;;;;8.52;4.93;;;;;;;;;;5007670;28;99673;-79
2023/09/09 11:36:06;;;;;;;9.13;4.90;;;;;;;;;;4989152;28;99102;-78
2023/09/09 11:38:32;;;;;;;8.05;5.10;;;;;;;;;;5010000;28;98954;-79
2023/09/09 11:40:59;;;;;;;;;;;;;;;;;;4993180;28;99889;-78
2023/09/09 11:43:25;;;;;;;9.27;5.18;;;;;;;;;;5010056;28;98549;-77
2023/09/09 11:45:52;;;;;;;;;;;;;;;;;;5008101;28;100371;-79
2023/09/09 11:48:19;;;;;;;7.82;4.80;;;;;;;;;;4989133;28;115889;-79
2023/09/09 11:50:46;;;;;;;7.60;4.55;;;;;;;;;;5007231;28;100141;-79
2023/09/09 11:53:12;;;;;;;;;;;;;;;;;;4972798;28;100061;-79
2023/09/09 11:55:39;;;;;;;7.82;4.70;;;;;;;;;;5007869;28;106484;-79
2023/09/09 11:58:06;;;;;;;8.35;5.10;;;;;;;;;;5007656;28;99061;-79
2023/09/09 12:00:33;;;;;;;9.10;5.28;;;;;;;;;;4992541;28;99600;-79
2023/09/09 12:02:59;;;;;;;8.68;5.03;;;;;;;;;;4988870;28;99238;-79
2023/09/09 12:05:30;;;;;;;8.27;4.97;;;;;;;;;;5006980;28;98487;-79
2023/09/09 12:07:57;;;;;;;8.63;5.03;;;;;;;;;;5007077;28;98571;-79
2023/09/09 12:10:27;;;;;;;8.98;5.03;;;;;;;;;;5007062;28;99323;-79
2023/09/09 12:12:53;;;;;;;7.90;4.82;;;;;;;;;;5005782;28;100072;-79
2023/09/09 12:15:20;;;;;;;;;;;;;;;;;;5008194;28;98449;-80
2023/09/09 12:17:46;;;;;;;34.85;7.00;;;;;;;;;;5008280;28;110918;-79
2023/09/09 12:20:13;;;;;;;;;;;;;;;;;;4989024;28;99161;-79
2023/09/09 12:22:47;;;;;;;13.93;4.90;;;;;;;;;;5008910;28;111895;-78
2023/09/09 12:25:33;;;;;;;18.70;5.20;;;;;;;;;;4995802;28;99773;-79
2023/09/09 12:27:59;;;;;;;12.82;4.90;;;;;;;;;;5006977;28;99328;-79
2023/09/09 12:30:30;;;;;;;13.38;5.03;;;;;;;;;;5007638;28;99088;-78
2023/09/09 12:33:04;;;;;;;9.25;5.05;;;;;;;;;;4993314;28;99276;-78
2023/09/09 12:35:34;;;;;;;13.77;4.90;;;;;;;;;;5007074;28;98546;-78
2023/09/09 12:38:01;;;;;;;10.02;4.55;;;;;;;;;;5006744;28;99602;-78
2023/09/09 12:40:28;;;;;;;10.00;4.65;;;;;;;;;;5006519;28;99079;-78
2023/09/09 12:42:56;;;;;;;7.65;4.50;;;;;;;;;;4999896;28;98622;-78
2023/09/09 12:45:25;;;;;;;9.00;4.70;;;;;;;;;;4984411;28;98873;-79
2023/09/09 12:47:52;;;;;;;8.85;5.00;;;;;;;;;;4999187;28;99086;-80
2023/09/09 12:50:19;;;;;;;9.48;4.63;;;;;;;;;;5004372;28;99343;-79
2023/09/09 12:52:45;;;;;;;9.35;4.70;;;;;;;;;;4981305;28;100121;-80
2023/09/09 12:55:13;;;;;;;8.15;4.88;;;;;;;;;;5004638;28;98147;-79
2023/09/09 12:57:39;;;;;;;9.88;4.70;;;;;;;;;;4987426;28;99691;-80
2023/09/09 13:00:06;;;;;;;8.50;4.72;;;;;;;;;;5004924;28;99348;-80
2023/09/09 13:02:33;;;;;;;8.77;5.10;;;;;;;;;;5004605;28;100586;-80
2023/09/09 13:05:00;;;;;;;9.57;4.63;;;;;;;;;;5005820;28;99651;-79
2023/09/09 13:07:26;;;;;;;9.18;4.68;;;;;;;;;;5008494;28;99678;-79
2023/09/09 13:09:53;;;;;;;8.65;4.70;;;;;;;;;;4988333;28;98939;-79
2023/09/09 13:12:19;;;;;;;8.38;4.35;;;;;;;;;;5006004;28;100495;-79
2023/09/09 13:14:46;;;;;;;7.93;4.88;;;;;;;;;;5006356;28;98604;-79
2023/09/09 13:17:12;;;;;;;10.35;4.50;;;;;;;;;;5006421;28;98715;-79
2023/09/09 13:19:39;;;;;;;;;;;;;;;;;;5012682;28;98387;-79
2023/09/09 13:22:05;;;;;;;8.48;4.70;;;;;;;;;;5010944;28;112978;-79
2023/09/09 13:24:32;;;;;;;9.63;4.72;;;;;;;;;;5006306;28;98863;-79
2023/09/09 13:26:58;;;;;;;7.88;4.60;;;;;;;;;;5004053;28;99935;-79
2023/09/09 13:29:25;;;;;;;8.52;4.85;;;;;;;;;;5009166;28;99038;-79
2023/09/09 13:31:52;;;;;;;8.98;4.90;;;;;;;;;;5005273;28;99734;-80
2023/09/09 13:34:19;;;;;;;8.35;4.90;;;;;;;;;;5006137;28;98850;-79
2023/09/09 13:36:45;;;;;;;9.63;5.30;;;;;;;;;;5005572;28;98803;-79
2023/09/09 13:39:12;;;;;;;8.57;5.13;;;;;;;;;;5005394;28;98813;-79
2023/09/09 13:41:38;;;;;;;8.05;4.80;;;;;;;;;;5005179;28;98649;-80
2023/09/09 13:44:05;;;;;;;10.27;5.10;;;;;;;;;;4988148;28;99955;-80
2023/09/09 13:46:32;;;;;;;7.75;4.82;;;;;;;;;;5004554;28;99130;-79
2023/09/09 13:48:58;;;;;;;8.82;4.78;;;;;;;;;;5005791;28;98599;-79
2023/09/09 13:51:25;;;;;;;9.05;5.32;;;;;;;;;;5007729;28;99991;-80
2023/09/09 13:53:55;;;;;;;8.05;4.93;;;;;;;;;;4977319;28;98994;-79
2023/09/09 13:56:22;;;;;;;7.20;4.68;;;;;;;;;;5005128;28;99002;-80
2023/09/09 13:58:48;;;;;;;8.25;4.88;;;;;;;;;;5005472;28;99068;-79
2023/09/09 14:01:15;;;;;;;7.65;4.72;;;;;;;;;;5005799;28;98526;-79
2023/09/09 14:03:41;;;;;;;7.85;4.85;;;;;;;;;;5005195;28;98850;-79
2023/09/09 14:06:08;;;;;;;7.70;5.13;;;;;;;;;;5004508;28;100316;-79
2023/09/09 14:08:35;;;;;;;7.97;4.60;;;;;;;;;;4987562;28;97917;-79
2023/09/09 14:11:02;;;;;;;7.57;4.90;;;;;;;;;;5008032;28;98476;-79
2023/09/09 14:13:28;;;;;;;8.02;4.53;;;;;;;;;;4987504;28;98623;-79
2023/09/09 14:15:56;;;;;;;7.65;4.40;;;;;;;;;;4986371;28;102241;-79
2023/09/09 14:18:23;;;;;;;8.00;4.70;;;;;;;;;;5004630;28;100165;-78
2023/09/09 14:20:49;;;;;;;;;;;;;;;;;;4987423;28;98609;-78
2023/09/09 14:23:16;;;;;;;9.30;5.30;;;;;;;;;;5007437;28;101493;-78
2023/09/09 14:25:42;;;;;;;8.30;5.00;;;;;;;;;;5005246;28;99595;-78
2023/09/09 14:28:10;;;;;;;8.93;4.97;;;;;;;;;;5004975;28;98968;-78
2023/09/09 14:30:37;;;;;;;9.13;5.32;;;;;;;;;;4987072;28;99076;-78
2023/09/09 14:33:06;;;;;;;10.27;5.63;;;;;;;;;;5000510;28;98488;-79